Aeroporto :







RITROVATECI SU...

 
LOGIN :

Iscrizione | Disclaimer

   EN    FR    IT 

 









Sommario :    VFR   VFR Marginale   IFR   IFR Intensivo   IFR Molto Intensivo
Visibilità : 
Base nubi : 
>= 8 km
>= 3000ft
5 / 8 km
1000 / 3000 ft
1500m / 5 km
500 / 1000 ft
800 / 1500m
200 / 500 ft
< 800m
< 200 ft
Simboli :   Temporali  Nebbia  Neve Forte  Precipitazioni Forti  Vento > 20 kt






- Altitudine del aeroporto : 39 ft
- Codice IATA : YNA


CYNA - Natashquan

ULTIMO METAR :
  • 220700Z AUTO 03007KT 9SM FEW029 M07/M09 A2987 RMK SLP118

METARs OBSOLETI :
  • 220600Z AUTO 01005KT 9SM CLR M07/M09 A2988 RMK SLP121
  • 220500Z AUTO 35005KT 9SM CLR M07/M09 A2990 RMK SLP128
  • 220400Z AUTO 01003KT 9SM CLR M06/M08 A2992 RMK SLP134

TAF TAF CYNA
Valido dal 22 a 02 ore il 22 a 14 ore UTC


220138Z 2202/2214 35006KT P6SM SCT030
FM221200 VRB03KT P6SM BKN025 RMK FCST BASED ON AUTO OBS. NXT FCST BY 220800Z



MetMap, La meteo Aeronautica in un colpo d'occhio ! - Copyright ORBIFLY Dicembre 2007 - Disclaimer

ORBIFLY MET'MAP TEAM :

Programmazione e sviluppo : Alexandra Zaïnal
Concezione e sviluppo : Baudouin d'Aumeries
Co-Programmazione e sviluppo : Marc-Olivier Méhu
Supporto tecnico e logistico : Manuel Goepfert
Aiuto per la traduzione : Arnaldo La Scala

Contatto : metmap@orbifly.com




FONTI E CREDITI :

   NOAA